Time;durP1;ratioP1;P1;durP2;ratioP2;P2;SDS_P1;SDS_P2;PMS_P1;PMS_P2;Temp;Humidity;BMP_temperature;BMP_pressure;BME280_temperature;BME280_humidity;BME280_pressure;Samples;Min_cycle;Max_cycle;Signal;HPM_P1;HPM_P2
2023/08/14 00:01:34;;;;;;;5.50;5.00;;;16.30;99.90;;;;;;5054199;28;20558;-66
2023/08/14 00:04:02;;;;;;;5.90;5.30;;;16.30;99.90;;;;;;5050912;28;20470;-63
2023/08/14 00:06:30;;;;;;;6.30;5.80;;;16.30;99.90;;;;;;5048731;28;20555;-65
2023/08/14 00:09:00;;;;;;;6.20;5.63;;;16.30;99.90;;;;;;5053927;28;20466;-64
2023/08/14 00:11:28;;;;;;;6.13;5.73;;;16.30;99.90;;;;;;5050950;28;20557;-64
2023/08/14 00:13:58;;;;;;;5.93;5.03;;;16.40;99.90;;;;;;5051807;28;20485;-66
2023/08/14 00:16:26;;;;;;;6.60;5.90;;;16.50;99.90;;;;;;5046513;28;20592;-65
2023/08/14 00:18:54;;;;;;;6.40;5.87;;;16.50;99.90;;;;;;5055073;28;21021;-66
2023/08/14 00:21:23;;;;;;;5.83;4.60;;;16.60;99.90;;;;;;5052627;28;20474;-66
2023/08/14 00:23:51;;;;;;;5.97;5.37;;;16.60;99.90;;;;;;5052829;28;20536;-64
2023/08/14 00:26:19;;;;;;;5.40;4.90;;;16.60;99.90;;;;;;5050994;28;20931;-64
2023/08/14 00:28:47;;;;;;;6.97;5.00;;;16.60;99.90;;;;;;5053068;28;21045;-64
2023/08/14 00:31:17;;;;;;;6.07;5.30;;;16.50;99.90;;;;;;5047242;28;20461;-64
2023/08/14 00:33:45;;;;;;;6.27;5.30;;;16.50;99.90;;;;;;5052107;28;20707;-66
2023/08/14 00:36:13;;;;;;;6.43;5.67;;;16.50;99.90;;;;;;5054632;28;20490;-64
2023/08/14 00:38:41;;;;;;;5.50;5.00;;;16.50;99.90;;;;;;5049671;28;20489;-65
2023/08/14 00:41:09;;;;;;;5.50;5.10;;;16.50;99.90;;;;;;5050876;28;20564;-64
2023/08/14 00:43:37;;;;;;;5.97;5.47;;;16.50;99.90;;;;;;5051044;28;20499;-66
2023/08/14 00:46:07;;;;;;;6.23;5.63;;;16.60;99.90;;;;;;5050643;28;20492;-65
2023/08/14 00:48:36;;;;;;;5.80;4.53;;;16.50;99.90;;;;;;5053595;28;20482;-65
2023/08/14 00:51:05;;;;;;;6.17;5.20;;;16.60;99.90;;;;;;5048476;28;20530;-65
2023/08/14 00:53:33;;;;;;;6.00;5.40;;;16.60;99.90;;;;;;5046251;28;21018;-65
2023/08/14 00:56:03;;;;;;;5.70;5.10;;;16.60;99.90;;;;;;5052294;28;20495;-65
2023/08/14 00:58:31;;;;;;;6.03;5.47;;;16.60;99.90;;;;;;5054702;28;20601;-65
2023/08/14 01:01:00;;;;;;;7.80;5.60;;;16.70;99.90;;;;;;5050004;28;20509;-65
2023/08/14 01:03:29;;;;;;;5.50;5.00;;;16.70;99.90;;;;;;5050064;28;20940;-65
2023/08/14 01:05:59;;;;;;;5.30;4.80;;;16.70;99.90;;;;;;5050700;28;20485;-63
2023/08/14 01:08:27;;;;;;;5.80;5.27;;;16.70;99.90;;;;;;5051386;28;20477;-66
2023/08/14 01:11:00;;;;;;;6.17;5.10;;;16.70;99.90;;;;;;5053825;28;20470;-66
2023/08/14 01:13:37;;;;;;;5.50;5.00;;;16.70;99.90;;;;;;5048833;28;20486;-66
2023/08/14 01:16:08;;;;;;;5.00;4.60;;;16.70;99.90;;;;;;5048329;28;21026;-66
2023/08/14 01:18:39;;;;;;;5.60;5.10;;;16.70;99.90;;;;;;5047133;28;20526;-65
2023/08/14 01:21:22;;;;;;;5.27;4.87;;;16.80;99.90;;;;;;5052019;28;21341;-63
2023/08/14 01:24:02;;;;;;;6.07;4.77;;;16.70;99.90;;;;;;5050258;28;20576;-64
2023/08/14 01:26:32;;;;;;;5.80;5.17;;;16.70;99.90;;;;;;5049568;28;21079;-66
2023/08/14 01:29:00;;;;;;;5.13;4.50;;;16.70;99.90;;;;;;5047809;28;20494;-66
2023/08/14 01:31:31;;;;;;;5.50;4.70;;;16.70;99.90;;;;;;5050046;28;20526;-64
2023/08/14 01:33:59;;;;;;;5.50;5.00;;;16.60;99.90;;;;;;5043910;28;20497;-66
2023/08/14 01:36:34;;;;;;;5.27;4.77;;;16.60;99.90;;;;;;5046318;28;20490;-63
2023/08/14 01:39:07;;;;;;;5.37;4.87;;;16.60;99.90;;;;;;5049552;28;20493;-64
2023/08/14 01:41:42;;;;;;;5.23;4.73;;;16.50;99.90;;;;;;5050985;28;20481;-65
2023/08/14 01:44:15;;;;;;;5.23;4.73;;;16.50;99.90;;;;;;5048412;28;20560;-66
2023/08/14 01:46:45;;;;;;;5.47;5.00;;;16.40;99.90;;;;;;5051329;28;20521;-66
2023/08/14 01:49:15;;;;;;;5.53;5.00;;;16.30;99.90;;;;;;5050715;28;20469;-66
2023/08/14 01:51:46;;;;;;;5.30;4.80;;;16.30;99.90;;;;;;5047653;28;20470;-64
2023/08/14 01:54:13;;;;;;;6.43;5.13;;;16.20;99.90;;;;;;5049242;28;20472;-65
2023/08/14 01:56:43;;;;;;;5.93;5.17;;;16.30;99.90;;;;;;5052671;28;20495;-66
2023/08/14 01:59:11;;;;;;;7.80;5.10;;;16.20;99.90;;;;;;5054207;28;20665;-65
2023/08/14 02:01:39;;;;;;;5.03;4.63;;;16.20;99.90;;;;;;5054679;28;20562;-65
2023/08/14 02:04:08;;;;;;;6.00;5.50;;;16.20;99.90;;;;;;5052375;28;20478;-65
2023/08/14 02:06:36;;;;;;;5.10;4.70;;;16.30;99.90;;;;;;5049099;28;20989;-64
2023/08/14 02:09:05;;;;;;;5.00;4.60;;;16.20;99.90;;;;;;5051400;28;20546;-66
2023/08/14 02:11:33;;;;;;;5.87;5.10;;;16.30;99.90;;;;;;5047457;28;20995;-63
2023/08/14 02:14:02;;;;;;;5.57;5.17;;;16.30;99.90;;;;;;5050611;28;20564;-66
2023/08/14 02:16:30;;;;;;;5.40;4.90;;;16.30;99.90;;;;;;5049934;28;20534;-64
2023/08/14 02:18:58;;;;;;;5.40;4.90;;;16.40;99.90;;;;;;5052466;28;20505;-65
2023/08/14 02:21:26;;;;;;;5.20;4.70;;;16.30;99.90;;;;;;5049966;28;20588;-65
2023/08/14 02:23:54;;;;;;;5.47;5.07;;;16.30;99.90;;;;;;5042310;28;20485;-64
2023/08/14 02:26:22;;;;;;;4.73;4.33;;;16.30;99.90;;;;;;5041881;28;20577;-63
2023/08/14 02:28:52;;;;;;;4.93;4.50;;;16.20;99.90;;;;;;5054407;28;20556;-66
2023/08/14 02:31:21;;;;;;;5.07;4.67;;;16.10;99.90;;;;;;5051172;28;20604;-63
2023/08/14 02:33:49;;;;;;;5.10;4.60;;;16.10;99.90;;;;;;5054641;28;20573;-65
2023/08/14 02:36:17;;;;;;;5.23;4.83;;;16.10;99.90;;;;;;5048451;28;20485;-64
2023/08/14 02:38:45;;;;;;;5.30;4.80;;;16.00;99.90;;;;;;5050941;28;20473;-65
2023/08/14 02:41:13;;;;;;;5.20;4.80;;;16.00;99.90;;;;;;5053570;28;20467;-66
2023/08/14 02:43:41;;;;;;;5.73;5.10;;;15.90;99.90;;;;;;5049994;28;20639;-65
2023/08/14 02:46:09;;;;;;;5.00;4.60;;;15.90;99.90;;;;;;5052215;28;20489;-64
2023/08/14 02:48:40;;;;;;;5.13;4.30;;;15.90;99.90;;;;;;5043763;28;20492;-65
2023/08/14 02:51:07;;;;;;;6.17;5.03;;;15.90;99.90;;;;;;5044869;28;20497;-64
2023/08/14 02:53:35;;;;;;;6.10;4.77;;;15.80;99.90;;;;;;5048776;28;20520;-63
2023/08/14 02:56:04;;;;;;;4.87;4.40;;;15.80;99.90;;;;;;5052177;28;20489;-64
2023/08/14 02:58:32;;;;;;;5.27;4.77;;;15.80;99.90;;;;;;5050413;28;21005;-64
2023/08/14 03:01:00;;;;;;;5.07;4.67;;;15.80;99.90;;;;;;5050103;28;20521;-65
2023/08/14 03:03:28;;;;;;;5.23;4.83;;;15.70;99.90;;;;;;5045535;28;20994;-64
2023/08/14 03:05:59;;;;;;;4.90;4.47;;;15.70;99.90;;;;;;5054661;28;20551;-64
2023/08/14 03:08:28;;;;;;;5.27;4.77;;;15.70;99.90;;;;;;5052733;28;20607;-66
2023/08/14 03:10:56;;;;;;;4.70;4.40;;;15.70;99.90;;;;;;5045759;28;20493;-65
2023/08/14 03:13:24;;;;;;;5.30;4.80;;;15.60;99.90;;;;;;5046514;28;20490;-63
2023/08/14 03:15:52;;;;;;;4.73;4.30;;;15.60;99.90;;;;;;5049642;28;20511;-64
2023/08/14 03:18:20;;;;;;;7.30;4.97;;;15.60;99.90;;;;;;5046595;28;20462;-64
2023/08/14 03:20:48;;;;;;;5.40;4.90;;;15.60;99.90;;;;;;5051730;28;21053;-65
2023/08/14 03:23:17;;;;;;;5.33;4.93;;;15.50;99.90;;;;;;5050496;28;20722;-64
2023/08/14 03:25:45;;;;;;;5.53;4.90;;;15.50;99.90;;;;;;5053782;28;20577;-66
2023/08/14 03:28:13;;;;;;;4.60;4.20;;;15.50;99.90;;;;;;5047765;28;20465;-66
2023/08/14 03:30:42;;;;;;;5.10;4.70;;;15.50;99.90;;;;;;5050438;28;20478;-65
2023/08/14 03:33:10;;;;;;;5.40;5.00;;;15.40;99.90;;;;;;5051059;28;21022;-63
2023/08/14 03:35:38;;;;;;;5.07;4.67;;;15.40;99.90;;;;;;5051507;28;20597;-65
2023/08/14 03:38:06;;;;;;;5.17;4.73;;;15.40;99.90;;;;;;5054023;28;20919;-66
2023/08/14 03:40:35;;;;;;;5.50;5.00;;;15.40;99.90;;;;;;5057065;28;20502;-65
2023/08/14 03:43:04;;;;;;;5.10;4.70;;;15.40;99.90;;;;;;5052577;28;20489;-64
2023/08/14 03:45:32;;;;;;;5.70;5.07;;;15.30;99.90;;;;;;5049548;28;20583;-65
2023/08/14 03:48:00;;;;;;;6.07;5.57;;;15.30;99.90;;;;;;5055098;28;20607;-64
2023/08/14 03:50:28;;;;;;;5.90;4.80;;;15.30;99.90;;;;;;5052935;28;20519;-64
2023/08/14 03:52:56;;;;;;;5.97;5.00;;;15.30;99.90;;;;;;5052021;28;20485;-65
2023/08/14 03:55:24;;;;;;;4.90;4.50;;;15.30;99.90;;;;;;5050847;28;20604;-63
2023/08/14 03:57:54;;;;;;;5.03;4.53;;;15.20;99.90;;;;;;5052734;28;20503;-64
2023/08/14 04:00:22;;;;;;;6.23;4.23;;;15.20;99.90;;;;;;5050070;28;20502;-64
2023/08/14 04:02:50;;;;;;;5.10;4.70;;;15.20;99.90;;;;;;5049960;28;20493;-64
2023/08/14 04:05:18;;;;;;;6.00;5.50;;;15.30;99.90;;;;;;5050949;28;21002;-65
2023/08/14 04:07:46;;;;;;;5.37;4.97;;;15.20;99.90;;;;;;5052226;28;20476;-64
2023/08/14 04:10:14;;;;;;;5.50;5.00;;;15.20;99.90;;;;;;5049874;28;20482;-66
2023/08/14 04:12:42;;;;;;;5.30;4.90;;;15.20;99.90;;;;;;5046869;28;21330;-65
2023/08/14 04:15:17;;;;;;;6.20;5.60;;;15.20;99.90;;;;;;5049381;28;20588;-64
2023/08/14 04:17:45;;;;;;;6.77;5.60;;;15.20;99.90;;;;;;5050440;28;20494;-64
2023/08/14 04:20:13;;;;;;;5.13;4.63;;;15.20;99.90;;;;;;5051541;28;20495;-65
2023/08/14 04:22:41;;;;;;;5.67;5.17;;;15.20;99.90;;;;;;5050095;28;20513;-66
2023/08/14 04:25:10;;;;;;;4.80;4.50;;;15.20;99.90;;;;;;5048018;28;20593;-64
2023/08/14 04:27:38;;;;;;;5.40;4.90;;;15.20;99.90;;;;;;5051583;28;20842;-64
2023/08/14 04:30:07;;;;;;;5.83;5.17;;;15.20;99.90;;;;;;5052917;28;20466;-65
2023/08/14 04:32:36;;;;;;;5.97;5.47;;;15.20;99.90;;;;;;5054089;28;20492;-66
2023/08/14 04:35:05;;;;;;;5.70;5.20;;;15.20;99.90;;;;;;5050568;28;20481;-63
2023/08/14 04:37:33;;;;;;;5.87;5.30;;;15.20;99.90;;;;;;5052081;28;20497;-66
2023/08/14 04:40:01;;;;;;;6.03;5.53;;;15.20;99.90;;;;;;5056122;28;20476;-65
2023/08/14 04:42:29;;;;;;;5.50;5.00;;;15.20;99.90;;;;;;5046248;28;20537;-64
2023/08/14 04:44:57;;;;;;;5.23;4.83;;;15.20;99.90;;;;;;5049189;28;20576;-64
2023/08/14 04:47:25;;;;;;;5.27;4.77;;;15.30;99.90;;;;;;5046819;28;20509;-65
2023/08/14 04:49:55;;;;;;;5.90;5.37;;;15.30;99.90;;;;;;5049600;28;20476;-63
2023/08/14 04:52:23;;;;;;;5.50;5.00;;;15.30;99.90;;;;;;5050950;28;20491;-65
2023/08/14 04:54:51;;;;;;;7.00;5.73;;;15.40;99.90;;;;;;5053690;28;20513;-63
2023/08/14 04:57:19;;;;;;;6.90;6.30;;;15.40;99.90;;;;;;5049265;28;20478;-64
2023/08/14 04:59:47;;;;;;;7.30;6.70;;;15.50;99.90;;;;;;5048062;28;20478;-64
2023/08/14 05:02:15;;;;;;;7.17;6.20;;;15.50;99.90;;;;;;5046854;28;20600;-65
2023/08/14 05:04:43;;;;;;;6.40;5.90;;;15.60;99.90;;;;;;5042855;28;20481;-63
2023/08/14 05:07:12;;;;;;;6.77;6.17;;;15.60;99.90;;;;;;5037464;28;20493;-64
2023/08/14 05:09:40;;;;;;;7.57;6.87;;;15.70;99.90;;;;;;5045660;28;20471;-69
2023/08/14 05:12:09;;;;;;;7.73;6.60;;;15.80;99.90;;;;;;5050003;28;20493;-68
2023/08/14 05:14:36;;;;;;;7.00;6.37;;;15.90;99.90;;;;;;5048681;28;20486;-69
2023/08/14 05:17:05;;;;;;;7.27;6.10;;;16.00;99.90;;;;;;5047145;28;20488;-70
2023/08/14 05:19:33;;;;;;;6.97;6.33;;;16.00;99.90;;;;;;5042876;28;20597;-67
2023/08/14 05:22:01;;;;;;;7.70;6.90;;;16.00;99.90;;;;;;5038722;28;20968;-68
2023/08/14 05:24:30;;;;;;;6.93;6.33;;;16.10;99.90;;;;;;5038943;28;20476;-68
2023/08/14 05:26:58;;;;;;;7.80;7.20;;;16.10;99.90;;;;;;5037924;28;20465;-68
2023/08/14 05:29:26;;;;;;;7.20;6.60;;;16.20;99.90;;;;;;5039488;28;20978;-68
2023/08/14 05:31:54;;;;;;;7.30;6.60;;;16.30;99.90;;;;;;5037809;28;20462;-69
2023/08/14 05:34:22;;;;;;;7.37;6.60;;;16.30;99.90;;;;;;5045740;28;20917;-67
2023/08/14 05:36:50;;;;;;;7.27;6.57;;;16.40;99.90;;;;;;5035349;28;22483;-69
2023/08/14 05:39:19;;;;;;;7.60;6.80;;;16.40;99.90;;;;;;5042430;28;20473;-67
2023/08/14 05:41:49;;;;;;;8.60;6.83;;;16.50;99.90;;;;;;5029675;28;20490;-67
2023/08/14 05:44:17;;;;;;;6.93;6.23;;;16.50;99.90;;;;;;5032646;28;20483;-67
2023/08/14 05:46:45;;;;;;;6.80;6.20;;;16.60;99.90;;;;;;5038490;28;20486;-67
2023/08/14 05:49:17;;;;;;;7.40;6.67;;;16.60;99.90;;;;;;5048236;28;20470;-67
2023/08/14 05:51:45;;;;;;;8.10;7.00;;;16.70;99.90;;;;;;5046690;28;20961;-68
2023/08/14 05:54:13;;;;;;;7.10;6.40;;;16.80;99.90;;;;;;5044439;28;20500;-69
2023/08/14 05:56:41;;;;;;;12.23;6.70;;;16.80;99.90;;;;;;5043583;28;20520;-67
2023/08/14 05:59:10;;;;;;;7.83;6.90;;;16.90;99.90;;;;;;5039869;28;20996;-67
2023/08/14 06:01:39;;;;;;;7.27;6.63;;;16.90;99.90;;;;;;5047610;28;20501;-69
2023/08/14 06:04:07;;;;;;;9.60;6.80;;;17.00;99.90;;;;;;5043463;28;20868;-69
2023/08/14 06:06:35;;;;;;;11.00;6.50;;;17.10;99.90;;;;;;5045936;28;20862;-68
2023/08/14 06:09:04;;;;;;;9.97;7.53;;;17.10;99.90;;;;;;5042413;28;20473;-69
2023/08/14 06:11:32;;;;;;;9.90;7.60;;;17.30;99.90;;;;;;5046368;28;20477;-68
2023/08/14 06:14:00;;;;;;;7.77;7.00;;;17.30;99.90;;;;;;5051905;28;20577;-69
2023/08/14 06:16:29;;;;;;;8.70;7.80;;;17.40;99.90;;;;;;5051080;28;20563;-69
2023/08/14 06:18:57;;;;;;;8.60;7.70;;;17.40;99.90;;;;;;5046916;28;20470;-68
2023/08/14 06:21:25;;;;;;;7.70;6.90;;;17.40;99.90;;;;;;5046259;28;20948;-68
2023/08/14 06:23:53;;;;;;;9.87;7.37;;;17.50;99.90;;;;;;5046278;28;20493;-68
2023/08/14 06:26:22;;;;;;;8.53;7.63;;;17.60;99.90;;;;;;5048044;28;21017;-69
2023/08/14 06:28:50;;;;;;;11.20;7.20;;;17.60;99.90;;;;;;5043892;28;20503;-68
2023/08/14 06:31:18;;;;;;;8.50;7.50;;;17.70;99.90;;;;;;5048727;28;20473;-69
2023/08/14 06:33:49;;;;;;;7.77;7.07;;;17.80;99.90;;;;;;5050561;28;20494;-68
2023/08/14 06:36:18;;;;;;;7.03;6.33;;;17.90;99.90;;;;;;5044825;28;20501;-68
2023/08/14 06:38:46;;;;;;;7.33;6.60;;;17.90;99.90;;;;;;5048003;28;20478;-66
2023/08/14 06:41:14;;;;;;;9.20;7.00;;;18.00;99.90;;;;;;5040058;28;20479;-68
2023/08/14 06:43:42;;;;;;;7.30;6.60;;;18.00;99.90;;;;;;5043671;28;20512;-68
2023/08/14 06:46:10;;;;;;;6.40;5.73;;;18.10;99.90;;;;;;5047253;28;20555;-68
2023/08/14 06:48:38;;;;;;;7.30;6.30;;;18.20;99.90;;;;;;5046000;28;20470;-68
2023/08/14 06:51:07;;;;;;;6.97;6.37;;;18.30;99.90;;;;;;5048044;28;20480;-68
2023/08/14 06:53:35;;;;;;;7.03;6.10;;;18.30;99.90;;;;;;5039147;28;20992;-68
2023/08/14 06:56:04;;;;;;;7.43;6.40;;;18.40;99.90;;;;;;5044231;28;20474;-68
2023/08/14 06:58:32;;;;;;;6.83;6.23;;;18.50;99.90;;;;;;5046083;28;20631;-68
2023/08/14 07:01:00;;;;;;;7.73;6.60;;;18.50;99.90;;;;;;5042585;28;20476;-68
2023/08/14 07:03:28;;;;;;;6.50;5.87;;;18.60;99.90;;;;;;5045228;28;20504;-68
2023/08/14 07:05:56;;;;;;;7.00;5.80;;;18.60;99.90;;;;;;5046462;28;20499;-68
2023/08/14 07:08:25;;;;;;;8.03;6.10;;;18.70;99.90;;;;;;5050726;28;20980;-68
2023/08/14 07:10:54;;;;;;;6.53;5.93;;;18.80;99.90;;;;;;5042226;28;20465;-68
2023/08/14 07:13:22;;;;;;;6.80;5.50;;;18.90;99.90;;;;;;5039944;28;20489;-68
2023/08/14 07:15:50;;;;;;;7.03;6.30;;;19.00;99.90;;;;;;5047069;28;20626;-68
2023/08/14 07:18:19;;;;;;;8.33;5.90;;;19.00;99.90;;;;;;5044399;28;20465;-67
2023/08/14 07:20:48;;;;;;;10.13;5.90;;;19.10;99.90;;;;;;5042248;28;20573;-68
2023/08/14 07:23:16;;;;;;;9.50;5.70;;;19.20;99.90;;;;;;5043514;28;20502;-68
2023/08/14 07:25:46;;;;;;;7.27;5.50;;;19.30;99.90;;;;;;5045488;28;20604;-68
2023/08/14 07:28:14;;;;;;;7.57;5.80;;;19.30;99.90;;;;;;5038122;28;20558;-68
2023/08/14 07:30:42;;;;;;;5.77;5.30;;;19.40;99.90;;;;;;5041845;28;20616;-68
2023/08/14 07:33:13;;;;;;;5.83;4.97;;;19.50;99.90;;;;;;5042965;28;20490;-66
2023/08/14 07:35:42;;;;;;;5.80;4.80;;;19.60;99.90;;;;;;5048627;28;20543;-66
2023/08/14 07:38:10;;;;;;;5.17;4.77;;;19.70;99.90;;;;;;5042190;28;20470;-66
2023/08/14 07:40:38;;;;;;;6.03;5.00;;;19.80;99.90;;;;;;5049459;28;20469;-67
2023/08/14 07:43:07;;;;;;;5.57;5.10;;;19.90;99.90;;;;;;5044163;28;20586;-67
2023/08/14 07:45:37;;;;;;;6.50;5.47;;;20.00;99.90;;;;;;5038458;28;20585;-67
2023/08/14 07:48:06;;;;;;;5.67;5.13;;;20.00;99.90;;;;;;5043337;28;20466;-67
2023/08/14 07:50:34;;;;;;;5.50;4.90;;;20.10;99.90;;;;;;5043817;28;20470;-67
2023/08/14 07:53:02;;;;;;;6.10;5.13;;;20.20;99.90;;;;;;5044903;28;20486;-67
2023/08/14 07:55:30;;;;;;;5.00;4.40;;;20.30;99.90;;;;;;5034569;28;20514;-67
2023/08/14 07:57:58;;;;;;;6.37;4.93;;;20.40;99.90;;;;;;5047690;28;20558;-67
2023/08/14 08:00:27;;;;;;;7.60;4.80;;;20.50;99.90;;;;;;5048107;28;20508;-67
2023/08/14 08:02:55;;;;;;;4.97;4.47;;;20.60;99.90;;;;;;5042546;28;20640;-67
2023/08/14 08:05:24;;;;;;;5.77;4.63;;;20.70;99.90;;;;;;5047943;28;20501;-67
2023/08/14 08:07:52;;;;;;;4.40;3.97;;;20.80;99.90;;;;;;5043935;28;20478;-67
2023/08/14 08:10:20;;;;;;;4.20;3.80;;;20.90;99.90;;;;;;5045028;28;20851;-67
2023/08/14 08:12:48;;;;;;;5.50;4.27;;;21.00;99.90;;;;;;5033559;28;20489;-67
2023/08/14 08:15:18;;;;;;;4.50;4.07;;;21.00;99.90;;;;;;5038915;28;20486;-67
2023/08/14 08:17:48;;;;;;;4.80;3.90;;;21.00;99.90;;;;;;5046072;28;20988;-67
2023/08/14 08:20:16;;;;;;;4.73;4.10;;;21.10;99.90;;;;;;5042494;28;20477;-67
2023/08/14 08:22:44;;;;;;;4.17;3.77;;;21.20;99.90;;;;;;5040989;28;20498;-67
2023/08/14 08:25:12;;;;;;;4.33;3.93;;;21.30;99.90;;;;;;5045480;28;20519;-67
2023/08/14 08:27:40;;;;;;;8.23;4.43;;;21.30;99.90;;;;;;5044439;28;20550;-67
2023/08/14 08:30:09;;;;;;;5.17;4.40;;;21.40;99.90;;;;;;5031634;28;20488;-67
2023/08/14 08:32:39;;;;;;;5.93;4.53;;;21.40;99.90;;;;;;5040951;28;20525;-67
2023/08/14 08:35:09;;;;;;;9.97;4.80;;;21.50;99.90;;;;;;5045667;28;20593;-67
2023/08/14 08:37:37;;;;;;;6.70;4.83;;;21.50;99.90;;;;;;5043856;28;20610;-67
2023/08/14 08:40:06;;;;;;;5.50;4.50;;;21.60;99.90;;;;;;5050950;28;20926;-67
2023/08/14 08:42:35;;;;;;;6.37;4.80;;;21.70;99.90;;;;;;5037783;28;20564;-67
2023/08/14 08:45:05;;;;;;;6.90;4.80;;;21.70;99.90;;;;;;5046621;28;20539;-67
2023/08/14 08:47:38;;;;;;;7.47;4.40;;;21.80;99.90;;;;;;5047772;28;20493;-67
2023/08/14 08:50:09;;;;;;;5.50;4.30;;;21.90;99.90;;;;;;5048247;28;20485;-67
2023/08/14 08:52:39;;;;;;;4.63;4.23;;;22.00;99.90;;;;;;5046018;28;20486;-67
2023/08/14 08:55:09;;;;;;;5.80;4.27;;;22.00;99.90;;;;;;5043944;28;20486;-67
2023/08/14 08:57:39;;;;;;;6.70;5.30;;;22.10;99.90;;;;;;5043823;28;20901;-68
2023/08/14 09:00:09;;;;;;;5.10;4.60;;;22.20;99.90;;;;;;5044466;28;20472;-67
2023/08/14 09:02:37;;;;;;;5.70;3.90;;;22.30;99.90;;;;;;5047865;28;20498;-68
2023/08/14 09:05:05;;;;;;;6.10;4.03;;;22.40;99.90;;;;;;5048196;28;20489;-67
2023/08/14 09:07:35;;;;;;;4.20;3.80;;;22.40;99.90;;;;;;5050146;28;20554;-67
2023/08/14 09:10:03;;;;;;;4.37;3.97;;;22.50;99.90;;;;;;5051217;28;20566;-67
2023/08/14 09:12:31;;;;;;;6.23;4.07;;;22.50;99.90;;;;;;5034711;28;20654;-67
2023/08/14 09:15:05;;;;;;;5.07;4.03;;;22.60;99.90;;;;;;5043932;28;20513;-67
2023/08/14 09:17:33;;;;;;;5.33;3.80;;;22.60;99.90;;;;;;5040838;28;20478;-67
2023/08/14 09:20:02;;;;;;;6.67;4.70;;;22.70;99.90;;;;;;5042417;28;20470;-67
2023/08/14 09:22:43;;;;;;;5.07;4.03;;;22.80;99.90;;;;;;5045712;28;20867;-67
2023/08/14 09:25:12;;;;;;;4.00;3.50;;;22.80;99.90;;;;;;5040027;28;20489;-67
2023/08/14 09:27:40;;;;;;;5.33;4.40;;;22.80;99.90;;;;;;5049809;28;20524;-67
2023/08/14 09:30:11;;;;;;;4.50;3.80;;;22.90;99.90;;;;;;5041363;28;20596;-67
2023/08/14 09:32:39;;;;;;;3.97;3.47;;;23.00;99.90;;;;;;5046911;28;20570;-67
2023/08/14 09:35:09;;;;;;;5.70;3.40;;;23.10;99.90;;;;;;5044012;28;20513;-68
2023/08/14 09:37:39;;;;;;;3.63;3.30;;;23.10;99.90;;;;;;5046664;28;20530;-67
2023/08/14 09:40:16;;;;;;;5.23;3.33;;;23.30;99.90;;;;;;5044364;28;20473;-67
2023/08/14 09:42:45;;;;;;;4.00;3.70;;;23.30;99.90;;;;;;5032327;28;20970;-68
2023/08/14 09:45:13;;;;;;;6.50;3.40;;;23.30;99.90;;;;;;5047439;28;20480;-67
2023/08/14 09:47:43;;;;;;;4.90;3.93;;;23.30;99.90;;;;;;5040138;28;21047;-67
2023/08/14 09:50:14;;;;;;;5.53;3.77;;;23.30;99.90;;;;;;5047197;28;20550;-67
2023/08/14 09:52:43;;;;;;;6.90;4.00;;;23.30;99.90;;;;;;5045655;28;20508;-67
2023/08/14 09:55:16;;;;;;;3.90;3.60;;;23.40;99.90;;;;;;5046439;28;20504;-67
2023/08/14 09:57:45;;;;;;;5.17;3.70;;;23.40;99.90;;;;;;5046154;28;23654;-67
2023/08/14 10:00:14;;;;;;;4.10;3.70;;;23.40;99.90;;;;;;5052710;28;20473;-68
2023/08/14 10:02:45;;;;;;;4.37;3.87;;;23.40;99.90;;;;;;5044235;28;20505;-67
2023/08/14 10:05:14;;;;;;;5.17;3.87;;;23.50;99.90;;;;;;5047953;28;20500;-67
2023/08/14 10:07:43;;;;;;;4.37;3.70;;;23.50;99.90;;;;;;5048831;28;21424;-68
2023/08/14 10:10:13;;;;;;;4.43;3.83;;;23.50;99.90;;;;;;5050651;28;20480;-68
2023/08/14 10:12:48;;;;;;;4.10;3.73;;;23.50;99.90;;;;;;5041508;28;22520;-68
2023/08/14 10:15:22;;;;;;;4.10;3.70;;;23.50;99.90;;;;;;5046050;28;20928;-68
2023/08/14 10:17:56;;;;;;;5.30;3.80;;;23.60;99.90;;;;;;5050082;28;21021;-68
2023/08/14 10:20:25;;;;;;;4.70;3.60;;;23.60;99.90;;;;;;5045574;28;20552;-67
2023/08/14 10:22:53;;;;;;;4.03;3.37;;;23.60;99.90;;;;;;5045915;28;20598;-68
2023/08/14 10:25:22;;;;;;;4.37;3.80;;;23.70;99.90;;;;;;5037983;28;20994;-68
2023/08/14 10:27:53;;;;;;;5.00;4.10;;;23.80;99.90;;;;;;5041175;28;20478;-67
2023/08/14 10:30:23;;;;;;;6.53;3.50;;;23.80;99.90;;;;;;5045384;28;20465;-68
2023/08/14 10:32:53;;;;;;;3.47;3.17;;;23.80;99.90;;;;;;5047255;28;20481;-67
2023/08/14 10:35:21;;;;;;;7.30;3.90;;;23.80;99.90;;;;;;5048313;28;21155;-68
2023/08/14 10:37:49;;;;;;;4.20;3.80;;;23.90;99.90;;;;;;5043678;28;20493;-68
2023/08/14 10:40:31;;;;;;;4.13;3.70;;;24.00;99.90;;;;;;5048637;28;21263;-68
2023/08/14 10:43:01;;;;;;;4.63;4.23;;;24.20;99.90;;;;;;5047948;28;20675;-68
2023/08/14 10:45:30;;;;;;;3.70;3.40;;;24.30;99.90;;;;;;5039859;28;20983;-68
2023/08/14 10:48:00;;;;;;;4.77;3.90;;;24.40;99.90;;;;;;5051662;28;20585;-68
2023/08/14 10:50:30;;;;;;;4.07;3.67;;;24.60;99.90;;;;;;5047382;28;20796;-68
2023/08/14 10:52:58;;;;;;;5.70;3.93;;;24.70;99.90;;;;;;5044324;28;20504;-68
2023/08/14 10:55:36;;;;;;;4.57;4.17;;;24.70;99.90;;;;;;5039356;28;21180;-68
2023/08/14 10:58:38;;;;;;;3.83;3.53;;;24.80;99.90;;;;;;5047280;28;20544;-67
2023/08/14 11:01:09;;;;;;;4.00;3.70;;;24.90;99.90;;;;;;5049015;28;21274;-68
2023/08/14 11:03:55;;;;;;;3.50;3.20;;;25.00;99.90;;;;;;5049652;28;20516;-68
2023/08/14 11:06:24;;;;;;;5.97;4.10;;;25.00;99.90;;;;;;5050226;28;20513;-68
2023/08/14 11:08:58;;;;;;;4.27;3.50;;;25.00;99.90;;;;;;5049469;28;20484;-68
2023/08/14 11:11:27;;;;;;;4.60;3.73;;;25.00;99.90;;;;;;5045808;28;21049;-68
2023/08/14 11:13:55;;;;;;;5.23;3.53;;;25.00;99.90;;;;;;5047126;28;20514;-68
2023/08/14 11:16:26;;;;;;;3.63;3.43;;;24.90;99.90;;;;;;5048082;28;20489;-68
2023/08/14 11:18:55;;;;;;;4.70;3.80;;;24.90;99.90;;;;;;5051478;28;20474;-68
2023/08/14 11:21:26;;;;;;;3.90;3.60;;;24.90;99.90;;;;;;5044569;28;20568;-68
2023/08/14 11:23:59;;;;;;;5.10;3.67;;;25.10;99.90;;;;;;5045520;28;20501;-68
2023/08/14 11:26:30;;;;;;;3.90;3.43;;;25.20;99.90;;;;;;5047974;28;20486;-68
2023/08/14 11:28:58;;;;;;;4.00;3.40;;;25.40;99.90;;;;;;5046557;28;20509;-68
2023/08/14 11:31:27;;;;;;;4.60;4.20;;;25.60;99.90;;;;;;5044828;28;21110;-68
2023/08/14 11:34:06;;;;;;;4.17;3.33;;;25.80;99.90;;;;;;5046072;28;20470;-68
2023/08/14 11:36:34;;;;;;;4.57;3.13;;;25.90;99.90;;;;;;5043008;28;20805;-68
2023/08/14 11:39:02;;;;;;;5.43;3.63;;;26.10;99.90;;;;;;5042622;28;20483;-68
2023/08/14 11:41:34;;;;;;;4.73;3.43;;;26.10;99.90;;;;;;5043889;28;20471;-68
2023/08/14 11:44:02;;;;;;;3.80;3.50;;;26.10;99.90;;;;;;5044311;28;20598;-68
2023/08/14 11:46:32;;;;;;;4.30;3.80;;;26.10;99.90;;;;;;5043593;28;20570;-68
2023/08/14 11:49:00;;;;;;;3.53;3.17;;;26.00;99.90;;;;;;5045457;28;20462;-68
2023/08/14 11:51:30;;;;;;;3.57;3.27;;;26.10;99.90;;;;;;5047841;28;20470;-68
2023/08/14 11:53:59;;;;;;;4.20;3.70;;;26.10;99.90;;;;;;5048569;28;20489;-68
2023/08/14 11:56:27;;;;;;;4.20;3.83;;;26.20;99.90;;;;;;5046779;28;20497;-68
2023/08/14 11:58:56;;;;;;;4.63;3.37;;;26.40;99.90;;;;;;5042858;28;20468;-68
2023/08/14 12:01:38;;;;;;;3.60;3.30;;;26.50;99.90;;;;;;5043467;28;21420;-68
2023/08/14 12:04:07;;;;;;;3.97;3.50;;;26.60;99.90;;;;;;5048545;28;20474;-68
2023/08/14 12:06:35;;;;;;;4.73;3.90;;;26.60;99.90;;;;;;5040542;28;20851;-68
2023/08/14 12:09:07;;;;;;;4.17;3.60;;;26.70;99.90;;;;;;5049197;28;20473;-68
2023/08/14 12:11:36;;;;;;;4.70;4.30;;;26.80;99.90;;;;;;5047041;28;20472;-68
2023/08/14 12:14:08;;;;;;;8.70;4.00;;;26.80;99.90;;;;;;5050879;28;20977;-67
2023/08/14 12:16:40;;;;;;;5.50;3.80;;;26.90;99.90;;;;;;5048437;28;20499;-68
2023/08/14 12:19:10;;;;;;;4.13;3.70;;;27.00;99.90;;;;;;5040052;28;20470;-68
2023/08/14 12:21:39;;;;;;;3.80;3.47;;;27.10;99.90;;;;;;5034374;28;20522;-69
2023/08/14 12:24:07;;;;;;;4.57;4.17;;;27.30;99.90;;;;;;5043150;28;20497;-69
2023/08/14 12:26:42;;;;;;;3.83;3.50;;;27.40;99.90;;;;;;5044302;28;20684;-69
2023/08/14 12:29:10;;;;;;;4.13;3.80;;;27.60;99.90;;;;;;5046694;28;20993;-68
2023/08/14 12:31:39;;;;;;;5.93;4.10;;;27.70;99.90;;;;;;5045885;28;20568;-68
2023/08/14 12:34:07;;;;;;;4.47;3.53;;;27.70;99.90;;;;;;5052591;28;20835;-69
2023/08/14 12:36:36;;;;;;;4.10;3.60;;;27.70;99.90;;;;;;5042141;28;20493;-66
2023/08/14 12:39:04;;;;;;;3.93;3.60;;;27.70;99.90;;;;;;5041879;28;20485;-66
2023/08/14 12:41:32;;;;;;;3.87;3.57;;;27.80;99.90;;;;;;5042534;28;21044;-67
2023/08/14 12:44:00;;;;;;;4.20;3.80;;;27.90;99.90;;;;;;5042328;28;20562;-66
2023/08/14 12:46:28;;;;;;;4.57;4.10;;;28.10;99.90;;;;;;5041436;28;20984;-67
2023/08/14 12:48:58;;;;;;;6.23;3.87;;;28.30;99.90;;;;;;5050376;28;21070;-67
2023/08/14 12:51:26;;;;;;;4.17;3.87;;;28.50;99.90;;;;;;5047808;28;20628;-67
2023/08/14 12:53:54;;;;;;;3.60;3.30;;;28.60;99.90;;;;;;5045452;28;20494;-67
2023/08/14 12:56:22;;;;;;;3.80;3.43;;;28.50;99.90;;;;;;5040864;28;20592;-67